createdAt,value
2022-09-25T00:00:18.639Z,80.33
2022-09-25T00:05:18.681Z,80.22
2022-09-25T00:10:18.742Z,80.18
2022-09-25T00:15:18.727Z,80.19
2022-09-25T00:20:19.641Z,80.17
2022-09-25T00:25:19.988Z,80.14
2022-09-25T00:30:19.748Z,80.22
2022-09-25T00:35:19.767Z,80.33
2022-09-25T00:40:19.730Z,80.45
2022-09-25T00:45:20.282Z,80.61
2022-09-25T00:50:20.730Z,80.55
2022-09-25T00:55:22.608Z,80.61
2022-09-25T01:00:22.772Z,80.58
2022-09-25T01:05:22.712Z,80.48
2022-09-25T01:10:22.738Z,80.44
2022-09-25T01:15:22.783Z,80.42
2022-09-25T01:20:22.756Z,80.35
2022-09-25T01:25:22.738Z,80.30
2022-09-25T01:30:22.928Z,80.24
2022-09-25T01:35:22.729Z,80.22
2022-09-25T01:40:22.806Z,80.08
2022-09-25T01:45:22.912Z,79.99
2022-09-25T01:50:22.760Z,79.71
2022-09-25T01:55:22.716Z,79.39
2022-09-25T02:00:22.790Z,79.13
2022-09-25T02:05:26.873Z,78.72
2022-09-25T02:10:26.757Z,78.73
2022-09-25T02:15:26.757Z,78.77
2022-09-25T02:20:32.886Z,78.88
2022-09-25T02:25:32.744Z,78.97
2022-09-25T02:30:32.930Z,79.03
2022-09-25T02:35:32.784Z,79.25
2022-09-25T02:40:32.793Z,79.47
2022-09-25T02:45:32.784Z,79.67
2022-09-25T02:50:32.828Z,79.74
2022-09-25T02:55:33.132Z,79.85
2022-09-25T03:00:33.041Z,80.01
2022-09-25T03:05:32.764Z,79.99
2022-09-25T03:10:32.829Z,79.96
2022-09-25T03:15:32.847Z,80.12
2022-09-25T03:20:32.833Z,80.32
2022-09-25T03:25:33.239Z,80.45
2022-09-25T03:30:32.968Z,80.63
2022-09-25T03:35:32.800Z,80.75
2022-09-25T03:40:32.902Z,80.83
2022-09-25T03:45:32.866Z,80.85
2022-09-25T03:50:32.861Z,80.86
2022-09-25T03:55:33.250Z,80.80
2022-09-25T04:00:32.916Z,80.79
2022-09-25T04:05:32.800Z,80.65
2022-09-25T04:10:32.837Z,80.60
2022-09-25T04:15:33.130Z,80.42
2022-09-25T04:20:32.906Z,80.25
2022-09-25T04:25:32.867Z,80.22
2022-09-25T04:30:32.886Z,80.09
2022-09-25T04:35:32.807Z,79.88
2022-09-25T04:40:32.923Z,79.85
2022-09-25T04:45:32.888Z,79.57
2022-09-25T04:50:34.707Z,79.55
2022-09-25T04:55:34.873Z,79.56
2022-09-25T05:00:35.353Z,79.56
2022-09-25T05:05:34.841Z,79.73
2022-09-25T05:10:34.880Z,79.73
2022-09-25T05:15:35.385Z,79.82
2022-09-25T05:20:34.880Z,79.97
2022-09-25T05:25:34.969Z,80.21
2022-09-25T05:30:34.878Z,80.27
2022-09-25T05:35:34.874Z,80.51
2022-09-25T05:40:34.979Z,80.78
2022-09-25T05:45:35.495Z,80.96
2022-09-25T05:50:35.971Z,81.07
2022-09-25T05:55:36.007Z,81.13
2022-09-25T06:00:35.923Z,81.19
2022-09-25T06:05:36.357Z,81.31
2022-09-25T06:10:35.977Z,81.41
2022-09-25T06:15:36.366Z,81.50
2022-09-25T06:20:35.929Z,81.52
2022-09-25T06:25:36.439Z,81.63
2022-09-25T06:30:36.026Z,81.64
2022-09-25T06:35:35.954Z,81.65
2022-09-25T06:40:37.627Z,81.49
2022-09-25T06:45:38.384Z,81.39
2022-09-25T06:50:37.981Z,81.27
2022-09-25T06:55:37.984Z,81.13
2022-09-25T07:00:37.958Z,81.00
2022-09-25T07:05:38.000Z,80.87
2022-09-25T07:10:39.210Z,80.97
2022-09-25T07:15:40.568Z,80.57
2022-09-25T07:20:41.013Z,80.23
2022-09-25T07:25:41.001Z,79.31
2022-09-25T07:30:41.079Z,78.44
2022-09-25T07:35:41.162Z,77.81
2022-09-25T07:40:41.472Z,77.69
2022-09-25T07:45:41.413Z,77.04
2022-09-25T07:50:41.674Z,76.03
2022-09-25T07:55:42.071Z,74.30
2022-09-25T08:00:43.052Z,71.80
2022-09-25T08:05:43.027Z,64.38
2022-09-25T08:10:43.338Z,60.51
2022-09-25T08:15:43.231Z,57.44
2022-09-25T08:20:43.033Z,58.20
2022-09-25T08:25:43.113Z,58.83
2022-09-25T08:30:43.614Z,61.19
2022-09-25T08:35:44.059Z,62.70
2022-09-25T08:40:46.467Z,61.91
2022-09-25T08:46:04.693Z,59.62
2022-09-25T08:51:05.737Z,51.45
2022-09-25T08:56:17.080Z,48.87
2022-09-25T09:01:17.143Z,43.77
2022-09-25T09:06:17.046Z,42.27
2022-09-25T09:11:17.075Z,42.92
2022-09-25T09:16:17.202Z,41.24
2022-09-25T09:21:17.070Z,34.46
2022-09-25T09:26:17.192Z,34.97
2022-09-25T09:31:17.192Z,41.87
2022-09-25T09:36:17.340Z,41.65
2022-09-25T09:41:17.101Z,43.68
2022-09-25T09:46:17.183Z,43.44
2022-09-25T09:51:17.082Z,42.09
2022-09-25T09:56:17.175Z,43.95
2022-09-25T10:01:37.066Z,45.08
2022-09-25T10:06:22.499Z,43.84
2022-09-25T10:11:21.194Z,45.76
2022-09-25T10:16:21.169Z,44.97
2022-09-25T10:21:21.165Z,45.67
2022-09-25T10:26:21.177Z,45.22
2022-09-25T10:31:21.236Z,44.79
2022-09-25T10:36:21.095Z,46.49
2022-09-25T10:41:21.109Z,48.03
2022-09-25T10:46:23.204Z,47.63
2022-09-25T10:51:23.120Z,46.69
2022-09-25T10:56:25.078Z,45.95
2022-09-25T11:01:25.303Z,45.77
2022-09-25T11:06:25.350Z,45.89
2022-09-25T11:11:28.288Z,46.35
2022-09-25T11:16:28.930Z,46.85
2022-09-25T11:21:29.178Z,47.93
2022-09-25T11:26:29.251Z,48.54
2022-09-25T11:31:29.138Z,48.91
2022-09-25T11:36:29.526Z,49.31
2022-09-25T11:41:29.209Z,49.11
2022-09-25T11:46:29.265Z,49.52
2022-09-25T11:51:29.692Z,47.42
2022-09-25T11:56:32.822Z,46.83
2022-09-25T12:01:31.280Z,46.93
2022-09-25T12:06:31.865Z,47.11
2022-09-25T12:11:37.306Z,46.46
2022-09-25T12:16:37.303Z,45.37
2022-09-25T12:21:38.453Z,46.21
2022-09-25T12:26:38.466Z,46.79
2022-09-25T12:31:39.040Z,48.13
2022-09-25T12:36:39.227Z,48.24
2022-09-25T12:41:40.292Z,47.15
2022-09-25T12:46:42.507Z,47.92
2022-09-25T12:51:42.229Z,48.29
2022-09-25T12:56:43.230Z,48.53
2022-09-25T13:01:45.105Z,48.97
2022-09-25T13:06:45.278Z,48.47
2022-09-25T13:11:45.606Z,48.15
2022-09-25T13:16:47.292Z,48.73
2022-09-25T13:21:47.231Z,49.40
2022-09-25T13:26:47.377Z,49.60
2022-09-25T13:31:47.209Z,49.27
2022-09-25T13:36:47.365Z,49.82
2022-09-25T13:41:48.176Z,50.55
2022-09-25T13:46:48.314Z,51.35
2022-09-25T13:51:48.243Z,51.15
2022-09-25T13:56:48.589Z,50.43
2022-09-25T14:01:48.446Z,50.07
2022-09-25T14:06:48.227Z,50.42
2022-09-25T14:11:48.235Z,50.08
2022-09-25T14:16:48.372Z,50.75
2022-09-25T14:21:48.347Z,51.43
2022-09-25T14:26:48.316Z,51.91
2022-09-25T14:31:48.358Z,52.32
2022-09-25T14:36:48.952Z,52.92
2022-09-25T14:41:49.321Z,53.19
2022-09-25T14:46:49.379Z,53.14
2022-09-25T14:51:49.995Z,53.19
2022-09-25T14:56:50.430Z,52.55
2022-09-25T15:01:50.478Z,52.72
2022-09-25T15:06:50.304Z,53.34
2022-09-25T15:11:50.230Z,53.84
2022-09-25T15:17:08.539Z,54.23
2022-09-25T15:22:08.242Z,54.59
2022-09-25T15:27:08.535Z,54.80
2022-09-25T15:32:08.664Z,54.73
2022-09-25T15:37:08.362Z,54.85
2022-09-25T15:42:08.281Z,55.04
2022-09-25T15:47:08.519Z,55.02
2022-09-25T15:52:08.382Z,55.46
2022-09-25T15:57:10.343Z,55.91
2022-09-25T16:02:28.714Z,56.32
2022-09-25T16:07:28.426Z,56.55
2022-09-25T16:12:28.346Z,56.67
2022-09-25T16:17:28.449Z,57.03
2022-09-25T16:22:28.639Z,57.29
2022-09-25T16:27:28.688Z,57.54
2022-09-25T16:32:28.402Z,57.81
2022-09-25T16:37:28.557Z,57.98
2022-09-25T16:42:28.446Z,58.27
2022-09-25T16:47:28.432Z,58.47
2022-09-25T16:52:28.577Z,58.65
2022-09-25T16:57:28.938Z,58.85
2022-09-25T17:02:33.246Z,59.15
2022-09-25T17:07:33.473Z,59.55
2022-09-25T17:12:33.561Z,59.94
2022-09-25T17:17:33.532Z,60.35
2022-09-25T17:22:33.380Z,60.88
2022-09-25T17:27:33.481Z,61.25
2022-09-25T17:32:33.785Z,61.53
2022-09-25T17:37:33.509Z,61.80
2022-09-25T17:42:33.375Z,62.02
2022-09-25T17:47:33.454Z,62.24
2022-09-25T17:52:33.497Z,62.49
2022-09-25T17:57:33.484Z,62.65
2022-09-25T18:02:33.587Z,62.83
2022-09-25T18:07:34.007Z,62.95
2022-09-25T18:12:34.454Z,63.07
2022-09-25T18:17:34.618Z,63.28
2022-09-25T18:22:35.452Z,63.57
2022-09-25T18:27:35.564Z,63.67
2022-09-25T18:32:35.517Z,63.95
2022-09-25T18:37:35.443Z,64.57
2022-09-25T18:42:35.465Z,65.46
2022-09-25T18:47:35.534Z,65.56
2022-09-25T18:52:35.455Z,65.82
2022-09-25T18:57:40.340Z,66.10
2022-09-25T19:02:42.063Z,66.73
2022-09-25T19:07:42.584Z,67.04
2022-09-25T19:12:42.464Z,67.65
2022-09-25T19:17:42.485Z,67.81
2022-09-25T19:22:42.526Z,68.18
2022-09-25T19:27:42.636Z,68.54
2022-09-25T19:32:43.239Z,68.85
2022-09-25T19:37:43.666Z,68.94
2022-09-25T19:42:43.523Z,69.17
2022-09-25T19:47:43.546Z,69.41
2022-09-25T19:52:47.561Z,69.45
2022-09-25T19:57:45.784Z,69.69
2022-09-25T20:02:46.005Z,70.06
2022-09-25T20:07:45.553Z,70.23
2022-09-25T20:12:45.587Z,70.67
2022-09-25T20:17:46.247Z,71.22
2022-09-25T20:22:47.006Z,71.77
2022-09-25T20:27:46.527Z,72.10
2022-09-25T20:32:46.639Z,72.44
2022-09-25T20:37:46.550Z,72.87
2022-09-25T20:42:46.514Z,73.19
2022-09-25T20:47:46.649Z,73.42
2022-09-25T20:52:46.916Z,73.53
2022-09-25T20:57:46.655Z,73.80
2022-09-25T21:02:46.605Z,74.41
2022-09-25T21:07:46.559Z,74.52
2022-09-25T21:12:46.514Z,74.83
2022-09-25T21:17:46.639Z,75.15
2022-09-25T21:22:47.164Z,75.21
2022-09-25T21:27:47.694Z,75.53
2022-09-25T21:32:47.669Z,75.48
2022-09-25T21:37:47.646Z,76.01
2022-09-25T21:42:47.553Z,76.31
2022-09-25T21:47:47.692Z,76.30
2022-09-25T21:52:47.571Z,76.19
2022-09-25T21:57:48.220Z,76.19
2022-09-25T22:02:49.752Z,76.15
2022-09-25T22:07:49.599Z,76.07
2022-09-25T22:12:49.574Z,75.95
2022-09-25T22:17:49.628Z,75.92
2022-09-25T22:22:49.779Z,75.82
2022-09-25T22:27:49.616Z,75.72
2022-09-25T22:32:49.620Z,75.73
2022-09-25T22:37:49.557Z,75.86
2022-09-25T22:42:49.777Z,75.99
2022-09-25T22:47:49.606Z,76.07
2022-09-25T22:52:49.779Z,76.14
2022-09-25T22:57:49.784Z,75.97
2022-09-25T23:02:49.628Z,76.11
2022-09-25T23:07:49.666Z,76.26
2022-09-25T23:12:49.591Z,76.24
2022-09-25T23:17:49.612Z,76.35
2022-09-25T23:22:49.666Z,76.38
2022-09-25T23:27:49.783Z,76.27
2022-09-25T23:32:49.648Z,76.29
2022-09-25T23:37:49.609Z,76.22
2022-09-25T23:42:49.808Z,76.14
2022-09-25T23:47:49.641Z,76.13
2022-09-25T23:52:49.701Z,76.23
2022-09-25T23:57:49.750Z,76.21
